Time;durP1;ratioP1;P1;durP2;ratioP2;P2;SDS_P1;SDS_P2;PMS_P1;PMS_P2;Temp;Humidity;BMP_temperature;BMP_pressure;BME280_temperature;BME280_humidity;BME280_pressure;Samples;Min_cycle;Max_cycle;Signal;HPM_P1;HPM_P2
2023/02/02 00:00:17;;;;;;;23.00;13.10;;;;;;;;;;5038561;28;20029;-78
2023/02/02 00:02:43;;;;;;;21.92;12.02;;;;;;;;;;5038766;28;20080;-78
2023/02/02 00:05:10;;;;;;;26.30;13.70;;;;;;;;;;5038722;28;20029;-79
2023/02/02 00:07:36;;;;;;;23.45;14.63;;;;;;;;;;5051591;28;20510;-79
2023/02/02 00:10:02;;;;;;;17.17;10.30;;;;;;;;;;5040523;28;20037;-79
2023/02/02 00:12:29;;;;;;;28.27;14.73;;;;;;;;;;5037510;28;20061;-79
2023/02/02 00:14:55;;;;;;;21.70;11.80;;;;;;;;;;5037668;28;20411;-77
2023/02/02 00:17:21;;;;;;;26.00;14.63;;;;;;;;;;5039125;28;20102;-78
2023/02/02 00:19:47;;;;;;;25.83;13.88;;;;;;;;;;5037199;28;20080;-78
2023/02/02 00:22:14;;;;;;;20.38;12.30;;;;;;;;;;5037725;28;20037;-79
2023/02/02 00:24:40;;;;;;;19.20;10.55;;;;;;;;;;5035320;28;20026;-78
2023/02/02 00:27:06;;;;;;;21.50;13.65;;;;;;;;;;5040324;28;20044;-78
2023/02/02 00:29:33;;;;;;;21.52;13.93;;;;;;;;;;5043360;28;20538;-79
2023/02/02 00:31:59;;;;;;;27.27;14.23;;;;;;;;;;5041195;28;20041;-76
2023/02/02 00:34:25;;;;;;;15.60;9.02;;;;;;;;;;5024287;28;20040;-75
2023/02/02 00:36:51;;;;;;;13.40;11.15;;;;;;;;;;5038655;28;20033;-76
2023/02/02 00:39:21;;;;;;;29.27;17.75;;;;;;;;;;5040700;28;20163;-76
2023/02/02 00:41:47;;;;;;;36.90;15.00;;;;;;;;;;5041904;28;20048;-76
2023/02/02 00:46:58;;;;;;;23.52;14.68;;;;;;;;;;5042764;28;20029;-76
2023/02/02 00:49:24;;;;;;;22.08;13.93;;;;;;;;;;5041177;28;20518;-75
2023/02/02 00:51:50;;;;;;;32.70;17.73;;;;;;;;;;5041189;28;20079;-77
2023/02/02 00:54:16;;;;;;;27.92;16.02;;;;;;;;;;5040232;28;20071;-76
2023/02/02 00:56:43;;;;;;;26.77;14.70;;;;;;;;;;5024548;28;20033;-77
2023/02/02 00:59:10;;;;;;;21.10;12.27;;;;;;;;;;5041855;28;20033;-76
2023/02/02 01:01:36;;;;;;;26.02;14.35;;;;;;;;;;5040333;28;20045;-76
2023/02/02 01:04:02;;;;;;;29.77;14.75;;;;;;;;;;5040904;28;20029;-77
2023/02/02 01:06:28;;;;;;;11.60;9.88;;;;;;;;;;5040159;28;20518;-76
2023/02/02 01:08:54;;;;;;;19.05;12.20;;;;;;;;;;5040166;28;20058;-76
2023/02/02 01:11:20;;;;;;;28.38;15.70;;;;;;;;;;5037498;28;20094;-76
2023/02/02 01:13:46;;;;;;;23.45;10.90;;;;;;;;;;5039932;28;20502;-76
2023/02/02 01:16:12;;;;;;;32.03;16.33;;;;;;;;;;5036016;28;20507;-75
2023/02/02 01:18:38;;;;;;;29.13;16.08;;;;;;;;;;5039404;28;20103;-75
2023/02/02 01:21:06;;;;;;;35.30;16.35;;;;;;;;;;5055544;28;20066;-75
2023/02/02 01:23:33;;;;;;;25.88;14.75;;;;;;;;;;5043857;28;20044;-77
2023/02/02 01:25:59;;;;;;;24.17;13.25;;;;;;;;;;5041972;28;20026;-76
2023/02/02 01:28:25;;;;;;;27.40;16.08;;;;;;;;;;5061115;28;20518;-77
2023/02/02 01:30:53;;;;;;;26.80;14.05;;;;;;;;;;5044315;28;20490;-77
2023/02/02 01:33:21;;;;;;;31.52;17.67;;;;;;;;;;5023000;28;20056;-77
2023/02/02 01:35:48;;;;;;;30.40;14.20;;;;;;;;;;5058687;28;20506;-76
2023/02/02 01:38:15;;;;;;;25.08;14.32;;;;;;;;;;5042939;28;20533;-76
2023/02/02 01:40:45;;;;;;;17.83;11.40;;;;;;;;;;5059753;28;20588;-74
2023/02/02 01:43:16;;;;;;;21.13;12.65;;;;;;;;;;5041584;28;20059;-75
2023/02/02 01:45:41;;;;;;;25.60;13.30;;;;;;;;;;5039461;28;20032;-76
2023/02/02 01:48:07;;;;;;;17.83;11.52;;;;;;;;;;5042381;28;20045;-75
2023/02/02 01:50:34;;;;;;;20.25;12.93;;;;;;;;;;5061549;28;20131;-74
2023/02/02 01:53:01;;;;;;;31.65;15.43;;;;;;;;;;5038986;28;20032;-75
2023/02/02 01:55:27;;;;;;;22.77;12.93;;;;;;;;;;5026845;28;20060;-76
2023/02/02 01:57:56;;;;;;;29.23;15.20;;;;;;;;;;5042448;28;20117;-75
2023/02/02 02:00:24;;;;;;;34.22;15.48;;;;;;;;;;5054619;28;20446;-76
2023/02/02 02:02:50;;;;;;;16.98;10.65;;;;;;;;;;5042811;28;20097;-76
2023/02/02 02:05:21;;;;;;;27.35;15.85;;;;;;;;;;5043149;28;20029;-77
2023/02/02 02:07:49;;;;;;;25.98;14.75;;;;;;;;;;5023141;28;20041;-75
2023/02/02 02:10:16;;;;;;;32.42;17.38;;;;;;;;;;5012856;28;20033;-75
2023/02/02 02:12:42;;;;;;;29.98;14.10;;;;;;;;;;4996639;28;20402;-75
2023/02/02 02:17:56;;;;;;;27.60;15.10;;;;;;;;;;5012721;28;20148;-76
2023/02/02 02:26:35;;;;;;;16.40;9.93;;;;;;;;;;5050013;28;20426;-77
2023/02/02 02:29:22;;;;;;;33.65;18.48;;;;;;;;;;5048918;28;20033;-77
2023/02/02 02:31:48;;;;;;;27.33;13.35;;;;;;;;;;5048892;28;20029;-77
2023/02/02 02:34:21;;;;;;;10.82;8.48;;;;;;;;;;5031820;28;20045;-77
2023/02/02 02:36:47;;;;;;;30.58;11.63;;;;;;;;;;5032688;28;20040;-77
2023/02/02 02:39:19;;;;;;;29.92;15.82;;;;;;;;;;5048668;28;20041;-77
2023/02/02 02:41:47;;;;;;;29.40;14.75;;;;;;;;;;5032353;28;20041;-76
2023/02/02 02:44:14;;;;;;;30.63;16.63;;;;;;;;;;5030588;28;20072;-76
2023/02/02 02:46:40;;;;;;;32.00;16.02;;;;;;;;;;5032087;28;20029;-77
2023/02/02 02:49:07;;;;;;;26.20;14.85;;;;;;;;;;5031887;28;20430;-76
2023/02/02 02:51:49;;;;;;;27.52;13.52;;;;;;;;;;5048669;28;20129;-76
2023/02/02 02:54:21;;;;;;;29.85;15.45;;;;;;;;;;5056216;28;20048;-78
2023/02/02 02:57:06;;;;;;;18.95;10.80;;;;;;;;;;5038218;28;20040;-79
2023/02/02 02:59:32;;;;;;;41.78;18.42;;;;;;;;;;5031872;28;20510;-78
2023/02/02 03:02:15;;;;;;;24.45;11.73;;;;;;;;;;5032419;28;20102;-75
2023/02/02 03:04:55;;;;;;;26.02;13.32;;;;;;;;;;5049689;28;20518;-75
2023/02/02 03:07:22;;;;;;;27.30;15.07;;;;;;;;;;5031507;28;20032;-76
2023/02/02 03:09:48;;;;;;;21.30;13.38;;;;;;;;;;5051163;28;20040;-75
2023/02/02 03:12:15;;;;;;;30.15;17.42;;;;;;;;;;5032241;28;20615;-74
2023/02/02 03:14:41;;;;;;;31.27;17.75;;;;;;;;;;5031792;28;20029;-75
2023/02/02 03:17:07;;;;;;;21.02;14.70;;;;;;;;;;5049277;28;20044;-75
2023/02/02 03:19:33;;;;;;;16.88;11.80;;;;;;;;;;5048901;28;20174;-75
2023/02/02 03:21:59;;;;;;;17.90;12.68;;;;;;;;;;5057534;28;20048;-74
2023/02/02 03:24:25;;;;;;;18.48;11.07;;;;;;;;;;5048235;28;20048;-76
2023/02/02 03:26:51;;;;;;;13.57;10.07;;;;;;;;;;5064596;28;20506;-76
2023/02/02 03:29:17;;;;;;;34.22;18.75;;;;;;;;;;5047990;28;20035;-75
2023/02/02 03:31:43;;;;;;;24.80;15.50;;;;;;;;;;5051358;28;20033;-75
2023/02/02 03:34:09;;;;;;;31.48;16.05;;;;;;;;;;5032275;28;20031;-77
2023/02/02 03:36:35;;;;;;;13.40;8.35;;;;;;;;;;5048400;28;20047;-77
2023/02/02 03:39:01;;;;;;;9.52;8.55;;;;;;;;;;5051138;28;20128;-77
2023/02/02 03:41:27;;;;;;;29.02;14.95;;;;;;;;;;5048900;28;20049;-76
2023/02/02 03:43:54;;;;;;;25.48;13.35;;;;;;;;;;5049171;28;20675;-77
2023/02/02 03:46:20;;;;;;;14.80;11.13;;;;;;;;;;5048894;28;20087;-75
2023/02/02 03:48:46;;;;;;;20.92;10.73;;;;;;;;;;5031726;28;20029;-77
2023/02/02 03:51:13;;;;;;;25.10;14.55;;;;;;;;;;5049217;28;20043;-78
2023/02/02 03:53:39;;;;;;;21.83;14.05;;;;;;;;;;5048824;28;20037;-77
2023/02/02 03:56:06;;;;;;;23.08;14.35;;;;;;;;;;5048858;28;20052;-78
2023/02/02 03:58:32;;;;;;;16.50;10.90;;;;;;;;;;5048794;28;20041;-78
2023/02/02 04:00:58;;;;;;;20.58;13.77;;;;;;;;;;5030923;28;20041;-77
2023/02/02 04:03:25;;;;;;;17.63;12.27;;;;;;;;;;5052528;28;20033;-77
2023/02/02 04:05:50;;;;;;;19.63;11.77;;;;;;;;;;5035021;28;20028;-77
2023/02/02 04:08:16;;;;;;;13.70;9.90;;;;;;;;;;5052588;28;20160;-78
2023/02/02 04:10:42;;;;;;;20.50;13.07;;;;;;;;;;5044801;28;20455;-78
2023/02/02 04:13:09;;;;;;;19.88;12.32;;;;;;;;;;5053260;28;20455;-77
2023/02/02 04:15:35;;;;;;;19.83;14.02;;;;;;;;;;5060815;28;20033;-77
2023/02/02 04:18:01;;;;;;;21.75;11.27;;;;;;;;;;5033025;28;20044;-77
2023/02/02 04:20:27;;;;;;;13.50;9.45;;;;;;;;;;5040848;28;20071;-77
2023/02/02 04:22:53;;;;;;;25.05;14.88;;;;;;;;;;5052631;28;20511;-80
2023/02/02 04:25:19;;;;;;;25.42;14.07;;;;;;;;;;5018546;28;20186;-77
2023/02/02 04:27:45;;;;;;;30.20;15.35;;;;;;;;;;5051289;28;20554;-76
2023/02/02 04:30:11;;;;;;;19.08;11.10;;;;;;;;;;5050897;28;20029;-77
2023/02/02 04:32:37;;;;;;;26.55;15.10;;;;;;;;;;5050295;28;20039;-77
2023/02/02 04:35:03;;;;;;;19.85;10.60;;;;;;;;;;5048450;28;20036;-78
2023/02/02 04:37:30;;;;;;;17.60;11.77;;;;;;;;;;5049381;28;20858;-77
2023/02/02 04:39:56;;;;;;;18.48;12.10;;;;;;;;;;5047176;28;20041;-82
2023/02/02 04:42:22;;;;;;;21.20;11.15;;;;;;;;;;5032309;28;20060;-80
2023/02/02 04:44:48;;;;;;;27.95;15.63;;;;;;;;;;5049680;28;20068;-78
2023/02/02 04:47:14;;;;;;;12.27;10.85;;;;;;;;;;5050391;28;20452;-79
2023/02/02 04:49:40;;;;;;;25.02;14.13;;;;;;;;;;5050002;28;20029;-79
2023/02/02 04:52:06;;;;;;;19.52;12.18;;;;;;;;;;5033164;28;20037;-79
2023/02/02 04:54:32;;;;;;;19.83;12.23;;;;;;;;;;5051535;28;20139;-80
2023/02/02 04:56:58;;;;;;;30.88;14.77;;;;;;;;;;5034362;28;20059;-80
2023/02/02 04:59:27;;;;;;;12.15;9.60;;;;;;;;;;5051155;28;20041;-78
2023/02/02 05:01:53;;;;;;;15.00;10.20;;;;;;;;;;5044411;28;20147;-79
2023/02/02 05:04:19;;;;;;;13.80;10.23;;;;;;;;;;5042196;28;20036;-81
2023/02/02 05:06:46;;;;;;;12.90;10.10;;;;;;;;;;5059584;28;20059;-81
2023/02/02 05:09:12;;;;;;;9.88;8.57;;;;;;;;;;5076144;28;20096;-81
2023/02/02 05:11:39;;;;;;;17.38;11.50;;;;;;;;;;5076694;28;20029;-79
2023/02/02 05:14:06;;;;;;;17.55;9.10;;;;;;;;;;5029326;28;20035;-81
2023/02/02 05:16:32;;;;;;;19.85;14.02;;;;;;;;;;5063164;28;20064;-79
2023/02/02 05:18:58;;;;;;;18.92;11.07;;;;;;;;;;5067342;28;20043;-79
2023/02/02 05:21:24;;;;;;;13.30;10.60;;;;;;;;;;5057721;28;20088;-81
2023/02/02 05:23:50;;;;;;;15.30;11.80;;;;;;;;;;5039269;28;20495;-82
2023/02/02 05:26:17;;;;;;;22.98;10.15;;;;;;;;;;5042476;28;20044;-83
2023/02/02 05:28:43;;;;;;;19.85;13.18;;;;;;;;;;5041918;28;20036;-81
2023/02/02 05:31:09;;;;;;;21.50;11.75;;;;;;;;;;5039349;28;20068;-82
2023/02/02 05:33:35;;;;;;;16.95;10.82;;;;;;;;;;5058716;28;20037;-80
2023/02/02 05:36:01;;;;;;;17.80;10.07;;;;;;;;;;5058470;28;20037;-79
2023/02/02 05:38:27;;;;;;;24.85;12.68;;;;;;;;;;5021386;28;20033;-82
2023/02/02 05:40:53;;;;;;;9.55;8.65;;;;;;;;;;5056059;28;20041;-79
2023/02/02 05:43:19;;;;;;;10.07;9.00;;;;;;;;;;5048934;28;20097;-79
2023/02/02 05:45:45;;;;;;;26.73;12.60;;;;;;;;;;5041828;28;20041;-80
2023/02/02 05:48:12;;;;;;;14.38;9.55;;;;;;;;;;5033567;28;20033;-80
2023/02/02 05:50:39;;;;;;;5.80;5.30;;;;;;;;;;5052366;28;20041;-80
2023/02/02 05:53:06;;;;;;;19.95;11.07;;;;;;;;;;5053914;28;20037;-81
2023/02/02 05:55:32;;;;;;;22.42;12.95;;;;;;;;;;5056304;28;20044;-81
2023/02/02 05:57:57;;;;;;;10.70;9.48;;;;;;;;;;5069755;28;20098;-81
2023/02/02 06:00:24;;;;;;;21.77;12.90;;;;;;;;;;5064539;28;20040;-82
2023/02/02 06:02:50;;;;;;;12.00;9.75;;;;;;;;;;5026185;28;20426;-82
2023/02/02 06:05:16;;;;;;;14.02;9.00;;;;;;;;;;5060370;28;20101;-81
2023/02/02 06:07:42;;;;;;;24.27;15.77;;;;;;;;;;5063871;28;20128;-81
2023/02/02 06:10:09;;;;;;;15.10;12.00;;;;;;;;;;5060269;28;20062;-81
2023/02/02 06:12:34;;;;;;;17.30;11.30;;;;;;;;;;5059660;28;20033;-80
2023/02/02 06:15:01;;;;;;;16.13;11.82;;;;;;;;;;5029795;28;20530;-81
2023/02/02 06:17:28;;;;;;;14.88;9.77;;;;;;;;;;5060601;28;20033;-82
2023/02/02 06:19:54;;;;;;;12.05;10.18;;;;;;;;;;5052975;28;20617;-79
2023/02/02 06:22:20;;;;;;;20.70;13.35;;;;;;;;;;5050781;28;20049;-79
2023/02/02 06:24:46;;;;;;;9.40;8.45;;;;;;;;;;5050968;28;20090;-80
2023/02/02 06:27:11;;;;;;;18.60;10.52;;;;;;;;;;5051138;28;20036;-79
2023/02/02 06:29:37;;;;;;;19.30;11.82;;;;;;;;;;5049897;28;20032;-78
2023/02/02 06:32:03;;;;;;;12.45;10.43;;;;;;;;;;5051009;28;20068;-80
2023/02/02 06:34:29;;;;;;;12.05;9.02;;;;;;;;;;5054993;28;20724;-81
2023/02/02 06:36:56;;;;;;;9.98;8.02;;;;;;;;;;5052581;28;20044;-80
2023/02/02 06:39:22;;;;;;;14.82;10.43;;;;;;;;;;5052392;28;20506;-81
2023/02/02 06:41:48;;;;;;;14.45;11.23;;;;;;;;;;5018503;28;20047;-78
2023/02/02 06:44:14;;;;;;;15.82;11.23;;;;;;;;;;5049918;28;20407;-79
2023/02/02 06:46:40;;;;;;;12.18;9.50;;;;;;;;;;5052376;28;20084;-79
2023/02/02 06:49:06;;;;;;;15.82;12.05;;;;;;;;;;5037010;28;20033;-81
2023/02/02 06:51:33;;;;;;;13.02;9.02;;;;;;;;;;5058762;28;20051;-81
2023/02/02 06:53:59;;;;;;;12.52;9.82;;;;;;;;;;5038582;28;20184;-81
2023/02/02 06:56:25;;;;;;;14.85;10.90;;;;;;;;;;5056947;28;20047;-80
2023/02/02 06:58:51;;;;;;;15.43;12.63;;;;;;;;;;5040179;28;20017;-80
2023/02/02 07:01:17;;;;;;;17.17;8.75;;;;;;;;;;5039688;28;20040;-80
2023/02/02 07:03:42;;;;;;;14.57;12.13;;;;;;;;;;5060670;28;20032;-79
2023/02/02 07:06:12;;;;;;;15.80;11.50;;;;;;;;;;5075957;28;20067;-81
2023/02/02 07:08:38;;;;;;;13.38;10.60;;;;;;;;;;5042800;28;20139;-78
2023/02/02 07:11:04;;;;;;;12.35;10.38;;;;;;;;;;5017642;28;20032;-82
2023/02/02 07:13:30;;;;;;;13.10;10.50;;;;;;;;;;5053234;28;20037;-82
2023/02/02 07:15:57;;;;;;;13.88;10.35;;;;;;;;;;5038203;28;20045;-82
2023/02/02 07:18:23;;;;;;;11.90;9.70;;;;;;;;;;5037250;28;20096;-81
2023/02/02 07:20:49;;;;;;;20.55;13.15;;;;;;;;;;5016704;28;20056;-79
2023/02/02 07:23:15;;;;;;;20.45;14.88;;;;;;;;;;5037838;28;20415;-80
2023/02/02 07:25:42;;;;;;;10.07;8.13;;;;;;;;;;5050046;28;20023;-78
2023/02/02 07:28:08;;;;;;;13.35;9.30;;;;;;;;;;5088687;28;20607;-82
2023/02/02 07:30:34;;;;;;;17.67;11.02;;;;;;;;;;5085180;28;20021;-85
2023/02/02 07:33:00;;;;;;;16.17;10.75;;;;;;;;;;5074156;28;20088;-83
2023/02/02 07:35:26;;;;;;;18.92;11.68;;;;;;;;;;5065552;28;20046;-81
2023/02/02 07:37:52;;;;;;;12.45;9.70;;;;;;;;;;5059899;28;20039;-81
2023/02/02 07:40:18;;;;;;;19.50;12.10;;;;;;;;;;5086576;28;20036;-80
2023/02/02 07:42:45;;;;;;;22.77;14.18;;;;;;;;;;5088506;28;20048;-84
2023/02/02 07:45:11;;;;;;;28.02;11.63;;;;;;;;;;5037488;28;20130;-84
2023/02/02 07:47:38;;;;;;;26.30;14.70;;;;;;;;;;5069600;28;20032;-86
2023/02/02 07:50:04;;;;;;;15.80;8.90;;;;;;;;;;5044424;28;20460;-79
2023/02/02 07:52:30;;;;;;;27.33;14.15;;;;;;;;;;5073950;28;20032;-82
2023/02/02 07:54:56;;;;;;;11.70;8.35;;;;;;;;;;5074608;28;20040;-80
2023/02/02 07:57:22;;;;;;;19.30;12.75;;;;;;;;;;5075645;28;20098;-82
2023/02/02 07:59:49;;;;;;;32.42;16.30;;;;;;;;;;5041382;28;20037;-80
2023/02/02 08:02:15;;;;;;;23.65;14.25;;;;;;;;;;5033451;28;20051;-82
2023/02/02 08:04:41;;;;;;;24.48;14.48;;;;;;;;;;5002265;28;20098;-80
2023/02/02 08:07:07;;;;;;;26.27;13.10;;;;;;;;;;5037199;28;20072;-81
2023/02/02 08:09:33;;;;;;;23.77;13.43;;;;;;;;;;5041170;28;20127;-82
2023/02/02 08:12:01;;;;;;;23.98;12.27;;;;;;;;;;5040315;28;20087;-81
2023/02/02 08:14:27;;;;;;;26.77;13.45;;;;;;;;;;5062250;28;20044;-83
2023/02/02 08:16:54;;;;;;;25.83;15.68;;;;;;;;;;5044256;28;20029;-82
2023/02/02 08:19:20;;;;;;;27.20;15.32;;;;;;;;;;5059406;28;20128;-78
2023/02/02 08:21:45;;;;;;;22.85;13.00;;;;;;;;;;5060010;28;20049;-82
2023/02/02 08:24:11;;;;;;;28.88;16.40;;;;;;;;;;5061570;28;20110;-82
2023/02/02 08:26:37;;;;;;;17.25;12.32;;;;;;;;;;5056225;28;20115;-81
2023/02/02 08:29:05;;;;;;;20.75;13.25;;;;;;;;;;5057972;28;20239;-81
2023/02/02 08:31:35;;;;;;;21.58;13.13;;;;;;;;;;5093970;28;20039;-83
2023/02/02 08:34:01;;;;;;;31.45;17.15;;;;;;;;;;5067487;28;20046;-84
2023/02/02 08:36:27;;;;;;;23.98;14.95;;;;;;;;;;5062284;28;20028;-82
2023/02/02 08:38:53;;;;;;;18.20;11.55;;;;;;;;;;5078489;28;20083;-83
2023/02/02 08:41:20;;;;;;;25.13;15.85;;;;;;;;;;5065476;28;20063;-81
2023/02/02 08:43:46;;;;;;;24.65;13.73;;;;;;;;;;5067193;28;20391;-81
2023/02/02 08:46:13;;;;;;;20.42;12.48;;;;;;;;;;5084929;28;20059;-83
2023/02/02 08:48:39;;;;;;;29.98;16.13;;;;;;;;;;5069184;28;20041;-82
2023/02/02 08:51:05;;;;;;;22.50;12.95;;;;;;;;;;5080604;28;20453;-81
2023/02/02 08:53:31;;;;;;;20.77;14.23;;;;;;;;;;5082355;28;20036;-84
2023/02/02 08:56:01;;;;;;;17.60;11.25;;;;;;;;;;5027902;28;20030;-81
2023/02/02 08:58:27;;;;;;;22.52;12.57;;;;;;;;;;5038476;28;20442;-80
2023/02/02 09:00:53;;;;;;;26.08;16.30;;;;;;;;;;5061707;28;20028;-81
2023/02/02 09:03:18;;;;;;;29.02;15.40;;;;;;;;;;5037080;28;20044;-81
2023/02/02 09:05:45;;;;;;;13.40;10.93;;;;;;;;;;5044491;28;20033;-80
2023/02/02 09:08:11;;;;;;;19.27;12.13;;;;;;;;;;5039243;28;20036;-81
2023/02/02 09:10:37;;;;;;;22.85;14.85;;;;;;;;;;5045762;28;20414;-82
2023/02/02 09:13:03;;;;;;;19.50;14.68;;;;;;;;;;5065635;28;20036;-80
2023/02/02 09:15:29;;;;;;;19.58;12.68;;;;;;;;;;5056935;28;20041;-82
2023/02/02 09:17:55;;;;;;;16.80;12.15;;;;;;;;;;5077086;28;20111;-81
2023/02/02 09:20:21;;;;;;;15.68;10.40;;;;;;;;;;5075040;28;20082;-81
2023/02/02 09:22:47;;;;;;;16.75;11.18;;;;;;;;;;5060497;28;20044;-84
2023/02/02 09:25:13;;;;;;;14.70;9.98;;;;;;;;;;5064542;28;20024;-83
2023/02/02 09:27:40;;;;;;;17.67;12.40;;;;;;;;;;5063548;28;20063;-82
2023/02/02 09:30:06;;;;;;;25.98;13.23;;;;;;;;;;5078712;28;20036;-83
2023/02/02 09:32:33;;;;;;;19.48;13.48;;;;;;;;;;5068471;28;20040;-86
2023/02/02 09:35:00;;;;;;;25.63;15.35;;;;;;;;;;5046078;28;20462;-82
2023/02/02 09:37:26;;;;;;;17.85;12.35;;;;;;;;;;5050224;28;20047;-85
2023/02/02 09:39:52;;;;;;;16.42;11.80;;;;;;;;;;5059811;28;20097;-84
2023/02/02 09:42:21;;;;;;;18.25;13.35;;;;;;;;;;5034851;28;20055;-82
2023/02/02 09:44:52;;;;;;;8.82;8.02;;;;;;;;;;5053253;28;20056;-84
2023/02/02 09:47:18;;;;;;;20.52;13.55;;;;;;;;;;5014936;28;20424;-82
2023/02/02 09:49:47;;;;;;;15.30;10.70;;;;;;;;;;5046332;28;20089;-84
2023/02/02 09:52:15;;;;;;;20.00;10.88;;;;;;;;;;5041166;28;20121;-84
2023/02/02 09:54:45;;;;;;;22.60;14.30;;;;;;;;;;5024244;28;20064;-78
2023/02/02 09:57:12;;;;;;;13.90;10.35;;;;;;;;;;5032718;28;20049;-86
2023/02/02 09:59:39;;;;;;;17.17;12.15;;;;;;;;;;5031561;28;20040;-81
2023/02/02 10:02:16;;;;;;;24.65;13.98;;;;;;;;;;5028644;28;20519;-83
2023/02/02 10:04:44;;;;;;;18.73;11.95;;;;;;;;;;5008688;28;20076;-82
2023/02/02 10:07:14;;;;;;;23.42;13.57;;;;;;;;;;5019977;28;20506;-83
2023/02/02 10:09:47;;;;;;;14.25;12.73;;;;;;;;;;5009877;28;20037;-83
2023/02/02 10:12:29;;;;;;;21.73;15.57;;;;;;;;;;5028118;28;20276;-84
2023/02/02 10:14:57;;;;;;;15.95;10.93;;;;;;;;;;5040190;28;20349;-84
2023/02/02 10:17:33;;;;;;;12.90;11.40;;;;;;;;;;5027275;28;20060;-85
2023/02/02 10:20:01;;;;;;;21.40;12.75;;;;;;;;;;5016384;28;20068;-80
2023/02/02 10:22:27;;;;;;;18.35;12.50;;;;;;;;;;5030963;28;20063;-82
2023/02/02 10:24:53;;;;;;;15.73;12.07;;;;;;;;;;5014792;28;20057;-84
2023/02/02 10:27:29;;;;;;;13.35;10.88;;;;;;;;;;5030037;28;20041;-83
2023/02/02 10:29:59;;;;;;;21.45;12.95;;;;;;;;;;5015957;28;20040;-83
2023/02/02 10:32:29;;;;;;;20.42;12.43;;;;;;;;;;5017316;28;20037;-81
2023/02/02 10:34:55;;;;;;;17.67;12.05;;;;;;;;;;5016602;28;20064;-84
2023/02/02 10:37:22;;;;;;;11.90;10.15;;;;;;;;;;4998134;28;20041;-83
2023/02/02 10:39:48;;;;;;;12.18;8.93;;;;;;;;;;5042187;28;20060;-84
2023/02/02 10:42:32;;;;;;;12.50;9.45;;;;;;;;;;5035211;28;20060;-82
2023/02/02 10:45:03;;;;;;;12.63;9.52;;;;;;;;;;5028454;28;20092;-84
2023/02/02 10:47:29;;;;;;;;;;;;;;;;;;5044748;28;20508;-83
2023/02/02 10:50:03;;;;;;;16.58;12.68;;;;;;;;;;5026769;28;19951;-84
2023/02/02 10:52:32;;;;;;;9.85;8.38;;;;;;;;;;5031416;28;20038;-83
2023/02/02 10:55:02;;;;;;;26.23;14.85;;;;;;;;;;5049554;28;20629;-81
2023/02/02 10:57:47;;;;;;;16.15;11.18;;;;;;;;;;5052673;28;20040;-82
2023/02/02 11:00:17;;;;;;;14.95;11.00;;;;;;;;;;5017239;28;20095;-82
2023/02/02 11:02:45;;;;;;;10.65;8.93;;;;;;;;;;5040407;28;20668;-82
2023/02/02 11:07:57;;;;;;;13.50;10.50;;;;;;;;;;5043169;28;20128;-85
2023/02/02 11:10:23;;;;;;;14.25;11.25;;;;;;;;;;5034554;28;20040;-81
2023/02/02 11:12:51;;;;;;;23.23;13.85;;;;;;;;;;5056355;28;20057;-83
2023/02/02 11:15:25;;;;;;;13.05;10.20;;;;;;;;;;5064148;28;20052;-85
2023/02/02 11:17:52;;;;;;;19.58;11.80;;;;;;;;;;5077770;28;20016;-85
2023/02/02 11:20:31;;;;;;;14.07;8.88;;;;;;;;;;5049618;28;20055;-82
2023/02/02 11:23:00;;;;;;;19.23;10.85;;;;;;;;;;5048210;28;20048;-79
2023/02/02 11:25:33;;;;;;;21.42;13.23;;;;;;;;;;5042829;28;20531;-79
2023/02/02 11:28:01;;;;;;;17.75;11.95;;;;;;;;;;5031635;28;20582;-77
2023/02/02 11:30:33;;;;;;;24.15;14.90;;;;;;;;;;5032328;28;20045;-80
2023/02/02 11:32:59;;;;;;;13.02;9.43;;;;;;;;;;5030886;28;20534;-79
2023/02/02 11:35:25;;;;;;;17.00;10.70;;;;;;;;;;5030896;28;20037;-82
2023/02/02 11:37:54;;;;;;;13.68;10.88;;;;;;;;;;5048468;28;20029;-78
2023/02/02 11:40:22;;;;;;;20.48;11.30;;;;;;;;;;5049055;28;20049;-78
2023/02/02 11:42:48;;;;;;;18.73;10.25;;;;;;;;;;5048679;28;20103;-76
2023/02/02 11:45:15;;;;;;;17.58;10.45;;;;;;;;;;5049400;28;20040;-79
2023/02/02 11:47:41;;;;;;;10.90;9.45;;;;;;;;;;5025425;28;20049;-81
2023/02/02 11:50:14;;;;;;;18.23;13.18;;;;;;;;;;5039057;28;20033;-78
2023/02/02 11:52:40;;;;;;;16.77;12.48;;;;;;;;;;5052224;28;20048;-83
2023/02/02 11:55:08;;;;;;;15.57;11.88;;;;;;;;;;5051250;28;20093;-83
2023/02/02 11:57:34;;;;;;;11.50;10.15;;;;;;;;;;5037536;28;20041;-82
2023/02/02 12:00:09;;;;;;;25.08;15.18;;;;;;;;;;5038057;28;20541;-80
2023/02/02 12:02:35;;;;;;;19.20;11.98;;;;;;;;;;5029342;28;20109;-81
2023/02/02 12:05:08;;;;;;;23.60;13.35;;;;;;;;;;5000769;28;20139;-80
2023/02/02 12:07:36;;;;;;;15.75;10.98;;;;;;;;;;5015451;28;20465;-81
2023/02/02 12:10:06;;;;;;;21.73;14.95;;;;;;;;;;5007195;28;20033;-82
2023/02/02 12:12:47;;;;;;;21.40;13.10;;;;;;;;;;4986216;28;20033;-82
2023/02/02 12:15:13;;;;;;;;;;;;;;;;;;5039931;28;20061;-82
2023/02/02 12:17:41;;;;;;;20.58;13.10;;;;;;;;;;5040570;28;19966;-78
2023/02/02 12:20:21;;;;;;;19.50;11.95;;;;;;;;;;5035370;28;20057;-78
2023/02/02 12:22:50;;;;;;;13.00;9.90;;;;;;;;;;5049324;28;20051;-78
2023/02/02 12:25:17;;;;;;;19.17;12.48;;;;;;;;;;5073210;28;20033;-82
2023/02/02 12:27:46;;;;;;;18.17;10.25;;;;;;;;;;5091160;28;20041;-83
2023/02/02 12:30:17;;;;;;;19.45;12.45;;;;;;;;;;5083932;28;20056;-83
2023/02/02 12:32:43;;;;;;;25.08;12.00;;;;;;;;;;5061432;28;20127;-83
2023/02/02 12:35:20;;;;;;;17.88;11.07;;;;;;;;;;5082183;28;20039;-83
2023/02/02 12:37:49;;;;;;;20.02;13.07;;;;;;;;;;5089784;28;20419;-84
2023/02/02 12:40:15;;;;;;;17.88;11.20;;;;;;;;;;5076954;28;20039;-85
2023/02/02 12:43:02;;;;;;;19.63;14.45;;;;;;;;;;5123977;22;20535;-82
2023/02/02 12:46:07;;;;;;;18.83;12.20;;;;;;;;;;5054237;28;20033;-85
2023/02/02 12:48:51;;;;;;;18.98;11.40;;;;;;;;;;4977583;28;20049;-85
2023/02/02 12:51:36;;;;;;;27.42;17.98;;;;;;;;;;4996100;28;20062;-84
2023/02/02 12:54:05;;;;;;;11.73;8.75;;;;;;;;;;5033195;28;20049;-82
2023/02/02 12:56:40;;;;;;;26.70;14.45;;;;;;;;;;5048490;28;20029;-84
2023/02/02 12:59:25;;;;;;;22.42;14.23;;;;;;;;;;5029769;28;20090;-83
2023/02/02 13:02:11;;;;;;;30.70;18.48;;;;;;;;;;5065685;28;20024;-84
2023/02/02 13:04:49;;;;;;;28.23;12.80;;;;;;;;;;5012034;28;20064;-83
2023/02/02 13:07:30;;;;;;;18.67;11.98;;;;;;;;;;5070999;28;20063;-84
2023/02/02 13:10:01;;;;;;;16.38;10.13;;;;;;;;;;5042933;28;20025;-85
2023/02/02 13:12:28;;;;;;;26.08;15.32;;;;;;;;;;5055534;28;20041;-84
2023/02/02 13:14:56;;;;;;;17.90;13.55;;;;;;;;;;5047396;28;20032;-83
2023/02/02 13:17:41;;;;;;;29.83;18.20;;;;;;;;;;5028753;28;20041;-82
2023/02/02 13:20:28;;;;;;;19.02;13.18;;;;;;;;;;5010125;28;20083;-83
2023/02/02 13:22:55;;;;;;;20.35;13.30;;;;;;;;;;5046229;28;20143;-81
2023/02/02 13:25:29;;;;;;;24.13;15.52;;;;;;;;;;5029942;28;20039;-83
2023/02/02 13:27:55;;;;;;;24.52;14.65;;;;;;;;;;5052831;28;20037;-82
2023/02/02 13:30:27;;;;;;;13.80;10.10;;;;;;;;;;5046468;28;20667;-84
2023/02/02 13:32:53;;;;;;;19.38;11.75;;;;;;;;;;5048054;28;20068;-83
2023/02/02 13:35:23;;;;;;;21.52;11.50;;;;;;;;;;5035608;28;20037;-83
2023/02/02 13:37:49;;;;;;;18.13;10.85;;;;;;;;;;5075946;28;20044;-82
2023/02/02 13:40:18;;;;;;;22.58;15.13;;;;;;;;;;5065616;28;20381;-81
2023/02/02 13:42:45;;;;;;;22.83;14.23;;;;;;;;;;5064719;28;20044;-82
2023/02/02 13:45:19;;;;;;;23.13;15.13;;;;;;;;;;5079793;28;20028;-83
2023/02/02 13:47:48;;;;;;;20.08;13.00;;;;;;;;;;5058297;28;20105;-82
2023/02/02 13:50:15;;;;;;;20.63;14.38;;;;;;;;;;5059176;28;20111;-82
2023/02/02 13:53:03;;;;;;;16.45;12.35;;;;;;;;;;5029016;28;20037;-83
2023/02/02 13:55:30;;;;;;;15.68;11.48;;;;;;;;;;5048881;28;20067;-83
2023/02/02 13:58:03;;;;;;;23.05;15.27;;;;;;;;;;5034254;28;20032;-83
2023/02/02 14:00:32;;;;;;;24.02;12.43;;;;;;;;;;5038333;28;20047;-82
2023/02/02 14:02:59;;;;;;;17.15;11.30;;;;;;;;;;5073890;28;20048;-84
2023/02/02 14:05:26;;;;;;;13.98;10.18;;;;;;;;;;5042267;28;20036;-81
2023/02/02 14:08:06;;;;;;;17.52;11.93;;;;;;;;;;5046067;28;20028;-83
2023/02/02 14:10:33;;;;;;;23.58;14.40;;;;;;;;;;5037500;28;20033;-81
2023/02/02 14:15:58;;;;;;;23.98;14.80;;;;;;;;;;5027317;28;20029;-79
2023/02/02 14:18:43;;;;;;;18.20;11.13;;;;;;;;;;4998497;28;20487;-80
2023/02/02 14:21:10;;;;;;;15.93;10.07;;;;;;;;;;5029415;28;20033;-79
2023/02/02 14:23:52;;;;;;;15.82;10.90;;;;;;;;;;5015731;28;20131;-80
2023/02/02 14:26:19;;;;;;;20.75;12.05;;;;;;;;;;5052841;28;20064;-81
2023/02/02 14:28:46;;;;;;;17.38;11.68;;;;;;;;;;5051700;28;20029;-80
2023/02/02 14:31:35;;;;;;;16.20;9.35;;;;;;;;;;5048128;28;20048;-80
2023/02/02 14:34:40;;;;;;;20.42;11.60;;;;;;;;;;5019735;28;20037;-80
2023/02/02 14:37:09;;;;;;;21.90;10.68;;;;;;;;;;4942944;29;20199;-84
2023/02/02 14:39:53;;;;;;;24.35;12.43;;;;;;;;;;4927574;29;20036;-83
2023/02/02 14:45:23;;;;;;;17.75;11.73;;;;;;;;;;5005746;28;20042;-82